Time;durP1;ratioP1;P1;durP2;ratioP2;P2;SDS_P1;SDS_P2;PMS_P1;PMS_P2;Temp;Humidity;BMP_temperature;BMP_pressure;BME280_temperature;BME280_humidity;BME280_pressure;Samples;Min_cycle;Max_cycle;Signal;HPM_P1;HPM_P2
2023/07/06 00:01:56;;;;;;;5.03;1.83;;;;;;;;;;6177931;28;20208;-71
2023/07/06 00:04:57;;;;;;;3.97;1.47;;;;;;;;;;6174985;28;20196;-71
2023/07/06 00:07:58;;;;;;;2.17;1.60;;;;;;;;;;6172935;28;20226;-71
2023/07/06 00:11:00;;;;;;;3.40;1.50;;;;;;;;;;6195122;28;20214;-70
2023/07/06 00:14:01;;;;;;;3.03;1.70;;;;;;;;;;6187825;28;20207;-70
2023/07/06 00:17:22;;;;;;;4.13;1.90;;;;;;;;;;6182004;28;20202;-71
2023/07/06 00:20:23;;;;;;;2.10;1.70;;;;;;;;;;6183028;28;20197;-71
2023/07/06 00:23:24;;;;;;;4.77;1.60;;;;;;;;;;6172538;28;20192;-71
2023/07/06 00:26:25;;;;;;;2.67;1.67;;;;;;;;;;6187183;28;20187;-71
2023/07/06 00:29:33;;;;;;;3.90;1.70;;;;;;;;;;6174874;28;20210;-71
2023/07/06 00:32:34;;;;;;;1.60;1.20;;;;;;;;;;6169407;28;20189;-71
2023/07/06 00:35:35;;;;;;;2.37;1.30;;;;;;;;;;6190763;28;20226;-71
2023/07/06 00:38:36;;;;;;;2.63;1.50;;;;;;;;;;6191357;28;20219;-71
2023/07/06 00:41:37;;;;;;;4.13;1.70;;;;;;;;;;6177927;28;20280;-71
2023/07/06 00:44:46;;;;;;;3.87;1.60;;;;;;;;;;6188467;28;20188;-72
2023/07/06 00:47:49;;;;;;;3.43;1.80;;;;;;;;;;6180833;28;20184;-71
2023/07/06 00:50:53;;;;;;;2.80;1.80;;;;;;;;;;6177627;28;20195;-72
2023/07/06 00:54:01;;;;;;;3.77;1.33;;;;;;;;;;6187217;28;20189;-72
2023/07/06 00:57:03;;;;;;;4.37;1.90;;;;;;;;;;6199342;28;20290;-72
2023/07/06 01:00:06;;;;;;;3.43;1.67;;;;;;;;;;6177328;28;20281;-72
2023/07/06 01:03:08;;;;;;;1.90;1.60;;;;;;;;;;6163943;28;20206;-72
2023/07/06 01:06:09;;;;;;;2.53;1.40;;;;;;;;;;6161371;28;20189;-72
2023/07/06 01:09:12;;;;;;;2.90;1.70;;;;;;;;;;6168851;28;20216;-72
2023/07/06 01:12:15;;;;;;;2.53;1.80;;;;;;;;;;6191397;28;20204;-72
2023/07/06 01:15:16;;;;;;;2.50;1.70;;;;;;;;;;6179188;28;20244;-72
2023/07/06 01:18:26;;;;;;;2.73;1.80;;;;;;;;;;6191365;28;20224;-72
2023/07/06 01:21:28;;;;;;;2.33;1.57;;;;;;;;;;6186405;28;20195;-72
2023/07/06 01:24:35;;;;;;;2.23;1.40;;;;;;;;;;6193149;28;20188;-72
2023/07/06 01:27:49;;;;;;;3.40;1.50;;;;;;;;;;6187204;28;20259;-72
2023/07/06 01:30:49;;;;;;;2.33;1.70;;;;;;;;;;6187431;28;20196;-72
2023/07/06 01:33:57;;;;;;;4.33;2.00;;;;;;;;;;6189266;28;20188;-72
2023/07/06 01:37:11;;;;;;;2.93;2.00;;;;;;;;;;6175607;28;20281;-72
2023/07/06 01:40:12;;;;;;;5.60;1.93;;;;;;;;;;6191237;28;20285;-72
2023/07/06 01:43:13;;;;;;;2.53;1.70;;;;;;;;;;6187785;28;20193;-72
2023/07/06 01:46:15;;;;;;;5.40;1.90;;;;;;;;;;6159819;28;20283;-72
2023/07/06 01:49:17;;;;;;;1.40;1.30;;;;;;;;;;6175553;28;20197;-72
2023/07/06 01:52:18;;;;;;;4.53;1.80;;;;;;;;;;6183037;28;20196;-71
2023/07/06 01:55:31;;;;;;;5.13;2.17;;;;;;;;;;6186305;28;20195;-71
2023/07/06 01:58:43;;;;;;;2.83;1.60;;;;;;;;;;6178685;28;20217;-71
2023/07/06 02:01:46;;;;;;;3.03;2.23;;;;;;;;;;6176408;28;20190;-71
2023/07/06 02:04:49;;;;;;;3.07;1.73;;;;;;;;;;6187740;28;20271;-71
2023/07/06 02:07:50;;;;;;;3.70;1.60;;;;;;;;;;6177565;28;20243;-71
2023/07/06 02:10:52;;;;;;;5.83;1.80;;;;;;;;;;6192087;28;20223;-71
2023/07/06 02:13:53;;;;;;;3.70;1.77;;;;;;;;;;6195978;28;20195;-71
2023/07/06 02:16:55;;;;;;;5.33;1.70;;;;;;;;;;6184200;28;20274;-71
2023/07/06 02:19:56;;;;;;;5.03;1.80;;;;;;;;;;6175587;28;20215;-71
2023/07/06 02:22:57;;;;;;;2.10;1.90;;;;;;;;;;6174128;28;20187;-71
2023/07/06 02:25:58;;;;;;;4.97;1.80;;;;;;;;;;6175130;28;20207;-71
2023/07/06 02:29:01;;;;;;;3.70;1.70;;;;;;;;;;6160887;28;20255;-71
2023/07/06 02:32:02;;;;;;;2.57;1.90;;;;;;;;;;6197073;28;20211;-71
2023/07/06 02:35:04;;;;;;;2.60;1.87;;;;;;;;;;6165697;28;20193;-71
2023/07/06 02:38:05;;;;;;;3.57;2.20;;;;;;;;;;6175139;28;20217;-71
2023/07/06 02:41:06;;;;;;;7.87;1.77;;;;;;;;;;6192410;28;20266;-71
2023/07/06 02:44:07;;;;;;;4.67;1.87;;;;;;;;;;6181277;28;20275;-71
2023/07/06 02:47:08;;;;;;;3.83;1.90;;;;;;;;;;6186691;28;20194;-72
2023/07/06 02:50:11;;;;;;;3.60;2.43;;;;;;;;;;6195755;28;20195;-72
2023/07/06 02:53:12;;;;;;;6.13;1.90;;;;;;;;;;6178496;28;20196;-71
2023/07/06 02:56:13;;;;;;;3.80;2.10;;;;;;;;;;6183191;28;20245;-72
2023/07/06 02:59:14;;;;;;;2.77;2.10;;;;;;;;;;6172083;28;20217;-72
2023/07/06 03:02:15;;;;;;;2.63;2.00;;;;;;;;;;6171490;28;20215;-72
2023/07/06 03:05:22;;;;;;;3.00;2.43;;;;;;;;;;6178325;28;20229;-70
2023/07/06 03:08:23;;;;;;;3.83;2.07;;;;;;;;;;6170895;28;20225;-71
2023/07/06 03:11:25;;;;;;;3.60;2.50;;;;;;;;;;6171562;28;20208;-70
2023/07/06 03:14:26;;;;;;;6.07;2.83;;;;;;;;;;6180861;28;20236;-71
2023/07/06 03:17:27;;;;;;;5.00;2.17;;;;;;;;;;6186408;28;20223;-71
2023/07/06 03:20:28;;;;;;;3.93;2.53;;;;;;;;;;6179240;28;20207;-71
2023/07/06 03:23:29;;;;;;;5.57;2.53;;;;;;;;;;6182309;28;20196;-71
2023/07/06 03:26:32;;;;;;;4.60;2.17;;;;;;;;;;6178002;28;20192;-72
2023/07/06 03:29:35;;;;;;;5.07;2.30;;;;;;;;;;6182793;28;20200;-73
2023/07/06 03:32:37;;;;;;;2.50;2.23;;;;;;;;;;6178019;28;20207;-71
2023/07/06 03:35:43;;;;;;;8.40;2.30;;;;;;;;;;6173769;28;20232;-70
2023/07/06 03:38:47;;;;;;;6.33;2.40;;;;;;;;;;6182487;28;20225;-71
2023/07/06 03:41:48;;;;;;;4.23;2.70;;;;;;;;;;6188325;28;20199;-71
2023/07/06 03:44:49;;;;;;;3.40;2.53;;;;;;;;;;6193588;28;20184;-71
2023/07/06 03:47:50;;;;;;;2.83;2.50;;;;;;;;;;6187227;28;20200;-70
2023/07/06 03:50:52;;;;;;;3.90;2.00;;;;;;;;;;6206391;28;20190;-71
2023/07/06 03:53:53;;;;;;;7.00;3.07;;;;;;;;;;6188505;28;20203;-70
2023/07/06 03:56:54;;;;;;;4.03;2.30;;;;;;;;;;6173498;28;20203;-70
2023/07/06 03:59:56;;;;;;;3.43;2.43;;;;;;;;;;6181526;28;20211;-73
2023/07/06 04:03:01;;;;;;;6.73;2.80;;;;;;;;;;6186940;28;20215;-69
2023/07/06 04:06:03;;;;;;;7.40;2.60;;;;;;;;;;6178574;28;20185;-73
2023/07/06 04:09:04;;;;;;;3.27;2.67;;;;;;;;;;6180171;28;20193;-73
2023/07/06 04:12:06;;;;;;;3.23;2.50;;;;;;;;;;6177300;28;20231;-72
2023/07/06 04:15:08;;;;;;;4.53;3.00;;;;;;;;;;6177099;28;20239;-70
2023/07/06 04:18:09;;;;;;;3.27;2.67;;;;;;;;;;6186226;28;20218;-72
2023/07/06 04:21:10;;;;;;;2.60;2.40;;;;;;;;;;6185491;28;20192;-72
2023/07/06 04:24:11;;;;;;;3.67;3.10;;;;;;;;;;6176881;28;20244;-71
2023/07/06 04:27:12;;;;;;;5.53;3.03;;;;;;;;;;6187143;28;20279;-71
2023/07/06 04:30:14;;;;;;;3.23;2.80;;;;;;;;;;6187492;28;20227;-71
2023/07/06 04:33:16;;;;;;;5.03;2.70;;;;;;;;;;6173141;28;20197;-72
2023/07/06 04:36:18;;;;;;;8.93;3.50;;;;;;;;;;6199342;28;20196;-74
2023/07/06 04:39:19;;;;;;;3.20;2.60;;;;;;;;;;6178429;28;20288;-69
2023/07/06 04:42:20;;;;;;;6.37;2.80;;;;;;;;;;6194404;28;20679;-70
2023/07/06 04:45:22;;;;;;;5.27;3.03;;;;;;;;;;6185036;28;20194;-70
2023/07/06 04:48:24;;;;;;;4.17;3.10;;;;;;;;;;6176013;28;20296;-71
2023/07/06 04:51:25;;;;;;;3.07;2.83;;;;;;;;;;6204704;28;20280;-71
2023/07/06 04:54:28;;;;;;;6.00;3.33;;;;;;;;;;6164665;28;20201;-69
2023/07/06 04:57:29;;;;;;;4.17;3.00;;;;;;;;;;6176166;28;20246;-71
2023/07/06 05:00:31;;;;;;;3.57;3.07;;;;;;;;;;6161206;28;20234;-70
2023/07/06 05:03:33;;;;;;;5.13;2.93;;;;;;;;;;6187025;28;20193;-76
2023/07/06 05:06:34;;;;;;;6.53;3.17;;;;;;;;;;6169313;28;20187;-73
2023/07/06 05:09:36;;;;;;;8.43;3.73;;;;;;;;;;6163463;28;20197;-69
2023/07/06 05:12:39;;;;;;;6.90;3.23;;;;;;;;;;6168558;28;20202;-70
2023/07/06 05:15:40;;;;;;;4.63;2.50;;;;;;;;;;6197031;28;20260;-68
2023/07/06 05:18:43;;;;;;;6.50;3.03;;;;;;;;;;6177380;28;20307;-70
2023/07/06 05:21:44;;;;;;;8.40;3.10;;;;;;;;;;6171151;28;20187;-70
2023/07/06 05:24:45;;;;;;;5.37;3.40;;;;;;;;;;6175945;28;20192;-70
2023/07/06 05:27:47;;;;;;;4.80;3.20;;;;;;;;;;6163487;28;20192;-70
2023/07/06 05:30:48;;;;;;;5.07;3.17;;;;;;;;;;6188297;28;20235;-70
2023/07/06 05:33:50;;;;;;;6.50;3.03;;;;;;;;;;6190240;28;20195;-70
2023/07/06 05:36:51;;;;;;;5.07;3.10;;;;;;;;;;6165967;28;20282;-70
2023/07/06 05:39:52;;;;;;;3.87;3.17;;;;;;;;;;6173085;28;20267;-70
2023/07/06 05:42:57;;;;;;;5.47;3.23;;;;;;;;;;6179114;28;20207;-70
2023/07/06 05:45:58;;;;;;;5.23;2.80;;;;;;;;;;6178787;28;20188;-70
2023/07/06 05:48:59;;;;;;;6.20;3.00;;;;;;;;;;6174366;28;20191;-70
2023/07/06 05:52:00;;;;;;;6.90;3.63;;;;;;;;;;6186685;28;20188;-71
2023/07/06 05:55:01;;;;;;;3.20;2.90;;;;;;;;;;6196129;28;20192;-70
2023/07/06 05:58:02;;;;;;;4.83;3.03;;;;;;;;;;6170347;28;20215;-71
2023/07/06 06:01:04;;;;;;;3.93;2.97;;;;;;;;;;6170070;28;20196;-71
2023/07/06 06:04:05;;;;;;;4.73;3.03;;;;;;;;;;6186202;28;20185;-69
2023/07/06 06:07:06;;;;;;;4.67;2.77;;;;;;;;;;6177943;28;20208;-70
2023/07/06 06:10:08;;;;;;;3.70;3.07;;;;;;;;;;6188518;28;20189;-69
2023/07/06 06:13:10;;;;;;;4.83;3.57;;;;;;;;;;6187046;28;20192;-69
2023/07/06 06:16:13;;;;;;;5.00;3.03;;;;;;;;;;6174925;28;20241;-69
2023/07/06 06:19:16;;;;;;;6.13;3.10;;;;;;;;;;6169410;28;20216;-69
2023/07/06 06:22:18;;;;;;;3.53;2.67;;;;;;;;;;6183154;28;20200;-69
2023/07/06 06:25:19;;;;;;;4.60;3.20;;;;;;;;;;6186416;28;20201;-69
2023/07/06 06:28:20;;;;;;;3.73;3.20;;;;;;;;;;6188422;28;20207;-69
2023/07/06 06:31:21;;;;;;;4.80;3.13;;;;;;;;;;6163487;28;20208;-69
2023/07/06 06:34:25;;;;;;;3.77;3.10;;;;;;;;;;6170415;28;20210;-70
2023/07/06 06:37:27;;;;;;;4.10;2.87;;;;;;;;;;6182511;28;20319;-69
2023/07/06 06:40:29;;;;;;;3.50;3.20;;;;;;;;;;6195187;28;20268;-70
2023/07/06 06:43:30;;;;;;;3.20;2.90;;;;;;;;;;6186292;28;20251;-70
2023/07/06 06:46:31;;;;;;;5.50;3.40;;;;;;;;;;6199179;28;20218;-70
2023/07/06 06:49:35;;;;;;;3.70;3.03;;;;;;;;;;6184548;28;20198;-70
2023/07/06 06:52:36;;;;;;;3.60;2.70;;;;;;;;;;6178690;28;20285;-71
2023/07/06 06:55:38;;;;;;;3.47;3.17;;;;;;;;;;6177414;28;20235;-71
2023/07/06 06:58:39;;;;;;;3.43;3.07;;;;;;;;;;6175011;28;20240;-71
2023/07/06 07:01:40;;;;;;;5.07;2.97;;;;;;;;;;6177098;28;20221;-71
2023/07/06 07:04:41;;;;;;;4.73;3.13;;;;;;;;;;6180615;28;20193;-71
2023/07/06 07:07:42;;;;;;;5.53;2.80;;;;;;;;;;6187094;28;20345;-71
2023/07/06 07:10:43;;;;;;;5.23;3.37;;;;;;;;;;6182879;28;20280;-71
2023/07/06 07:13:44;;;;;;;3.50;3.10;;;;;;;;;;6172258;28;20208;-71
2023/07/06 07:16:45;;;;;;;4.93;3.40;;;;;;;;;;6177281;28;20264;-71
2023/07/06 07:19:46;;;;;;;3.70;3.20;;;;;;;;;;6167258;28;20338;-70
2023/07/06 07:22:47;;;;;;;5.00;3.40;;;;;;;;;;6181126;28;20196;-71
2023/07/06 07:25:48;;;;;;;7.93;3.07;;;;;;;;;;6176903;28;20181;-71
2023/07/06 07:28:51;;;;;;;3.63;2.67;;;;;;;;;;6171861;28;20196;-71
2023/07/06 07:31:52;;;;;;;3.00;2.70;;;;;;;;;;6183353;28;20200;-71
2023/07/06 07:34:53;;;;;;;4.20;3.20;;;;;;;;;;6172870;28;20204;-71
2023/07/06 07:37:54;;;;;;;3.87;2.80;;;;;;;;;;6195476;28;20244;-71
2023/07/06 07:40:59;;;;;;;3.33;2.40;;;;;;;;;;6177233;28;20198;-71
2023/07/06 07:44:01;;;;;;;3.90;3.47;;;;;;;;;;6181228;28;20185;-70
2023/07/06 07:47:02;;;;;;;4.83;2.77;;;;;;;;;;6182085;28;20219;-68
2023/07/06 07:50:05;;;;;;;3.60;3.00;;;;;;;;;;6186711;28;20199;-68
2023/07/06 07:53:07;;;;;;;6.37;3.47;;;;;;;;;;6161191;28;20200;-69
2023/07/06 07:56:08;;;;;;;5.00;3.00;;;;;;;;;;6168314;28;20251;-68
2023/07/06 07:59:09;;;;;;;7.70;3.40;;;;;;;;;;6189622;28;20299;-69
2023/07/06 08:02:10;;;;;;;4.17;3.07;;;;;;;;;;6181018;28;20195;-69
2023/07/06 08:05:11;;;;;;;4.43;3.10;;;;;;;;;;6177606;28;20222;-69
2023/07/06 08:08:12;;;;;;;4.83;3.00;;;;;;;;;;6183732;28;20248;-69
2023/07/06 08:11:15;;;;;;;4.83;3.40;;;;;;;;;;6180969;28;20196;-69
2023/07/06 08:14:35;;;;;;;4.73;3.33;;;;;;;;;;6176595;28;20200;-69
2023/07/06 08:17:36;;;;;;;4.70;3.70;;;;;;;;;;6191827;28;20209;-70
2023/07/06 08:20:38;;;;;;;3.67;3.17;;;;;;;;;;6172126;28;20204;-69
2023/07/06 08:23:40;;;;;;;6.10;3.53;;;;;;;;;;6187677;28;20198;-69
2023/07/06 08:26:41;;;;;;;3.50;3.20;;;;;;;;;;6181883;28;20199;-69
2023/07/06 08:29:43;;;;;;;4.27;3.53;;;;;;;;;;6177348;28;20191;-69
2023/07/06 08:32:45;;;;;;;3.97;2.93;;;;;;;;;;6177526;28;20227;-69
2023/07/06 08:35:47;;;;;;;3.90;3.10;;;;;;;;;;6182989;28;20198;-70
2023/07/06 08:38:48;;;;;;;5.17;3.47;;;;;;;;;;6174021;28;20311;-69
2023/07/06 08:41:50;;;;;;;3.60;3.10;;;;;;;;;;6180144;28;20194;-69
2023/07/06 08:44:53;;;;;;;3.63;3.17;;;;;;;;;;6196075;28;20184;-70
2023/07/06 08:47:56;;;;;;;3.03;2.53;;;;;;;;;;6185405;28;20206;-69
2023/07/06 08:50:59;;;;;;;6.80;2.90;;;;;;;;;;6187080;28;20192;-69
2023/07/06 08:54:27;;;;;;;3.20;2.60;;;;;;;;;;6185528;28;20181;-69
2023/07/06 08:57:30;;;;;;;3.33;3.03;;;;;;;;;;6170938;28;20262;-69
2023/07/06 09:00:31;;;;;;;6.17;2.87;;;;;;;;;;6179700;28;20190;-70
2023/07/06 09:03:36;;;;;;;4.17;3.00;;;;;;;;;;6165421;28;20242;-71
2023/07/06 09:06:38;;;;;;;4.53;3.20;;;;;;;;;;6178428;28;20181;-70
2023/07/06 09:09:40;;;;;;;3.90;3.00;;;;;;;;;;6174193;28;20207;-69
2023/07/06 09:12:41;;;;;;;4.40;3.13;;;;;;;;;;6173244;28;20253;-70
2023/07/06 09:15:45;;;;;;;3.90;3.00;;;;;;;;;;6181130;28;20286;-70
2023/07/06 09:18:47;;;;;;;3.53;2.80;;;;;;;;;;6176638;28;20279;-68
2023/07/06 09:21:51;;;;;;;4.30;2.90;;;;;;;;;;6173705;28;20189;-69
2023/07/06 09:24:52;;;;;;;3.80;2.73;;;;;;;;;;6193668;28;20216;-68
2023/07/06 09:27:55;;;;;;;4.97;2.90;;;;;;;;;;6175971;28;20195;-68
2023/07/06 09:31:15;;;;;;;5.00;2.57;;;;;;;;;;6176793;28;20192;-69
2023/07/06 09:34:26;;;;;;;3.67;2.60;;;;;;;;;;6183614;28;20201;-70
2023/07/06 09:37:27;;;;;;;3.27;2.70;;;;;;;;;;6181852;28;20192;-69
2023/07/06 09:40:29;;;;;;;2.80;2.40;;;;;;;;;;6180540;28;20203;-69
2023/07/06 09:43:30;;;;;;;4.27;2.93;;;;;;;;;;6191379;28;20223;-69
2023/07/06 09:46:33;;;;;;;3.57;2.60;;;;;;;;;;6197079;28;20234;-69
2023/07/06 09:49:39;;;;;;;2.53;2.33;;;;;;;;;;6205747;28;20245;-69
2023/07/06 09:52:40;;;;;;;4.07;3.33;;;;;;;;;;6198324;28;20196;-69
2023/07/06 09:55:41;;;;;;;3.20;2.57;;;;;;;;;;6196587;28;20179;-70
2023/07/06 09:58:45;;;;;;;4.97;2.90;;;;;;;;;;6200151;28;20254;-70
2023/07/06 10:02:05;;;;;;;3.60;3.07;;;;;;;;;;6195857;28;20211;-69
2023/07/06 10:05:17;;;;;;;6.73;2.73;;;;;;;;;;6179333;28;20248;-69
2023/07/06 10:08:24;;;;;;;3.13;2.67;;;;;;;;;;6193679;28;20280;-69
2023/07/06 10:11:28;;;;;;;3.43;2.50;;;;;;;;;;6192971;28;20220;-69
2023/07/06 10:14:32;;;;;;;5.20;2.93;;;;;;;;;;6191223;28;20231;-69
2023/07/06 10:17:37;;;;;;;9.33;2.93;;;;;;;;;;6189185;28;20192;-69
2023/07/06 10:20:44;;;;;;;6.03;3.30;;;;;;;;;;6187981;28;20524;-70
2023/07/06 10:24:03;;;;;;;4.07;2.57;;;;;;;;;;6178063;28;20185;-69
2023/07/06 10:27:05;;;;;;;5.17;2.73;;;;;;;;;;6178172;28;20177;-69
2023/07/06 10:30:08;;;;;;;4.37;2.70;;;;;;;;;;6173658;28;20191;-70
2023/07/06 10:33:12;;;;;;;4.20;2.83;;;;;;;;;;6188150;28;20275;-69
2023/07/06 10:36:14;;;;;;;6.07;2.77;;;;;;;;;;6184321;28;20184;-70
2023/07/06 10:39:24;;;;;;;3.10;2.77;;;;;;;;;;6197738;28;20212;-70
2023/07/06 10:42:26;;;;;;;4.90;2.87;;;;;;;;;;6191726;28;20192;-71
2023/07/06 10:45:34;;;;;;;4.23;2.87;;;;;;;;;;6199871;28;20191;-70
2023/07/06 10:48:36;;;;;;;5.10;3.17;;;;;;;;;;6188167;28;20264;-71
2023/07/06 10:51:45;;;;;;;5.17;2.80;;;;;;;;;;6182665;28;20206;-70
2023/07/06 10:54:48;;;;;;;4.40;3.47;;;;;;;;;;6179216;28;20279;-69
2023/07/06 10:57:53;;;;;;;3.77;3.13;;;;;;;;;;6181752;28;20206;-70
2023/07/06 11:00:55;;;;;;;4.20;3.00;;;;;;;;;;6180004;28;20207;-69
2023/07/06 11:03:59;;;;;;;4.60;3.00;;;;;;;;;;6191687;28;20199;-70
2023/07/06 11:07:00;;;;;;;3.63;3.10;;;;;;;;;;6190102;28;20212;-70
2023/07/06 11:10:19;;;;;;;3.80;2.97;;;;;;;;;;6176762;28;20259;-69
2023/07/06 11:13:21;;;;;;;3.50;2.70;;;;;;;;;;6184759;28;20196;-67
2023/07/06 11:16:41;;;;;;;4.37;3.20;;;;;;;;;;6174886;28;20356;-70
2023/07/06 11:20:11;;;;;;;4.73;3.37;;;;;;;;;;6274355;28;20782;-71
2023/07/06 11:23:14;;;;;;;3.37;2.80;;;;;;;;;;6278999;28;20319;-70
2023/07/06 11:26:38;;;;;;;4.97;3.40;;;;;;;;;;6274128;28;20197;-70
2023/07/06 11:29:40;;;;;;;3.67;3.37;;;;;;;;;;6266537;28;20212;-70
2023/07/06 11:32:51;;;;;;;4.10;3.23;;;;;;;;;;6280640;28;20189;-70
2023/07/06 11:35:56;;;;;;;5.73;3.43;;;;;;;;;;6279294;28;20200;-71
2023/07/06 11:38:57;;;;;;;6.23;3.67;;;;;;;;;;6283974;28;20201;-70
2023/07/06 11:41:58;;;;;;;3.43;3.13;;;;;;;;;;6273788;28;20303;-70
2023/07/06 11:45:04;;;;;;;4.10;2.83;;;;;;;;;;6273523;28;20301;-70
2023/07/06 11:48:12;;;;;;;4.30;3.50;;;;;;;;;;6265314;28;20260;-69
2023/07/06 11:51:15;;;;;;;4.90;3.20;;;;;;;;;;6276790;28;20209;-70
2023/07/06 11:57:44;;;;;;;5.87;3.27;;;;;;;;;;6275028;28;20226;-75
2023/07/06 12:00:52;;;;;;;3.97;3.23;;;;;;;;;;6270897;28;20241;-69
2023/07/06 12:03:57;;;;;;;4.27;2.97;;;;;;;;;;6272755;28;20192;-69
2023/07/06 12:07:00;;;;;;;4.13;3.40;;;;;;;;;;6268380;28;20186;-74
2023/07/06 12:10:06;;;;;;;4.63;3.10;;;;;;;;;;6283933;28;20197;-76
2023/07/06 12:13:28;;;;;;;3.43;3.13;;;;;;;;;;6259686;28;20198;-74
2023/07/06 12:16:33;;;;;;;4.90;3.47;;;;;;;;;;6303920;28;20272;-73
2023/07/06 12:19:37;;;;;;;4.43;3.10;;;;;;;;;;6274267;28;20233;-75
2023/07/06 12:22:52;;;;;;;3.90;3.40;;;;;;;;;;6271388;28;20283;-76
2023/07/06 12:25:54;;;;;;;6.77;3.43;;;;;;;;;;6268341;28;20178;-73
2023/07/06 12:28:57;;;;;;;3.87;3.47;;;;;;;;;;6271886;28;20186;-70
2023/07/06 12:32:07;;;;;;;6.53;3.67;;;;;;;;;;6258698;28;20236;-72
2023/07/06 12:35:11;;;;;;;3.90;3.50;;;;;;;;;;6256053;28;20182;-71
2023/07/06 12:38:14;;;;;;;3.70;2.90;;;;;;;;;;6251779;28;20206;-74
2023/07/06 12:41:20;;;;;;;5.90;3.93;;;;;;;;;;6256959;28;20282;-74
2023/07/06 12:44:25;;;;;;;5.47;3.87;;;;;;;;;;6255492;28;20190;-73
2023/07/06 12:47:37;;;;;;;6.43;3.13;;;;;;;;;;6268579;28;20214;-74
2023/07/06 12:50:41;;;;;;;3.30;3.10;;;;;;;;;;6260589;28;20268;-75
2023/07/06 12:53:42;;;;;;;4.87;3.80;;;;;;;;;;6254254;28;20193;-73
2023/07/06 12:56:44;;;;;;;3.90;3.60;;;;;;;;;;6260205;28;20194;-74
2023/07/06 12:59:49;;;;;;;7.87;3.90;;;;;;;;;;6264846;28;20272;-75
2023/07/06 13:02:58;;;;;;;5.37;3.60;;;;;;;;;;6258388;28;20194;-74
2023/07/06 13:06:00;;;;;;;5.50;4.20;;;;;;;;;;6270467;28;20193;-72
2023/07/06 13:09:02;;;;;;;5.57;3.70;;;;;;;;;;6254928;28;20197;-76
2023/07/06 13:12:09;;;;;;;4.63;3.87;;;;;;;;;;6267694;28;20217;-76
2023/07/06 13:15:23;;;;;;;5.23;3.57;;;;;;;;;;6255764;28;20190;-74
2023/07/06 13:18:25;;;;;;;5.10;3.40;;;;;;;;;;6268133;28;20245;-73
2023/07/06 13:21:26;;;;;;;6.13;3.90;;;;;;;;;;6252647;28;20188;-73
2023/07/06 13:24:28;;;;;;;4.20;3.50;;;;;;;;;;6270642;28;20221;-73
2023/07/06 13:27:29;;;;;;;3.80;3.47;;;;;;;;;;6264841;28;20216;-70
2023/07/06 13:30:31;;;;;;;5.17;3.50;;;;;;;;;;6260904;28;20182;-73
2023/07/06 13:33:34;;;;;;;6.43;3.97;;;;;;;;;;6258229;28;20201;-74
2023/07/06 13:36:36;;;;;;;4.23;3.53;;;;;;;;;;6239601;28;20286;-74
2023/07/06 13:39:37;;;;;;;4.53;3.67;;;;;;;;;;6262257;28;20206;-74
2023/07/06 13:42:38;;;;;;;5.73;3.80;;;;;;;;;;6261031;28;20198;-74
2023/07/06 13:45:40;;;;;;;8.73;4.03;;;;;;;;;;6270389;28;20198;-74
2023/07/06 13:48:43;;;;;;;6.93;3.73;;;;;;;;;;6268770;28;20186;-78
2023/07/06 13:51:44;;;;;;;6.20;3.50;;;;;;;;;;6253208;28;20233;-77
2023/07/06 13:54:45;;;;;;;7.50;4.27;;;;;;;;;;6272992;28;20201;-78
2023/07/06 13:57:46;;;;;;;9.43;4.20;;;;;;;;;;6256028;28;20248;-77
2023/07/06 14:00:48;;;;;;;6.63;3.70;;;;;;;;;;6244478;28;20182;-72
2023/07/06 14:03:54;;;;;;;4.50;3.37;;;;;;;;;;6263304;28;20191;-73
2023/07/06 14:06:55;;;;;;;9.83;4.70;;;;;;;;;;6244996;28;20190;-73
2023/07/06 14:09:56;;;;;;;24.23;8.77;;;;;;;;;;6248860;28;20208;-70
2023/07/06 14:12:57;;;;;;;20.57;9.27;;;;;;;;;;6261490;28;20276;-70
2023/07/06 14:15:59;;;;;;;12.23;5.90;;;;;;;;;;6263393;28;20202;-71
2023/07/06 14:19:00;;;;;;;18.27;8.27;;;;;;;;;;6252607;28;20241;-70
2023/07/06 14:22:01;;;;;;;15.40;7.40;;;;;;;;;;6246664;28;20195;-70
2023/07/06 14:25:04;;;;;;;17.90;6.47;;;;;;;;;;6260400;28;20219;-70
2023/07/06 14:28:05;;;;;;;50.40;10.33;;;;;;;;;;6247194;28;20194;-67
2023/07/06 14:31:12;;;;;;;32.33;8.63;;;;;;;;;;6263431;28;20197;-70
2023/07/06 14:34:14;;;;;;;7.27;5.57;;;;;;;;;;6265612;28;20186;-74
2023/07/06 14:37:15;;;;;;;12.70;5.70;;;;;;;;;;6258862;28;20244;-72
2023/07/06 14:40:16;;;;;;;10.70;6.60;;;;;;;;;;6258154;28;20218;-73
2023/07/06 14:43:18;;;;;;;9.33;6.17;;;;;;;;;;6251848;28;20247;-72
2023/07/06 14:46:19;;;;;;;7.30;5.83;;;;;;;;;;6266681;28;20222;-72
2023/07/06 14:49:20;;;;;;;9.17;6.23;;;;;;;;;;6249439;28;20195;-72
2023/07/06 14:52:22;;;;;;;8.87;5.90;;;;;;;;;;6256819;28;20193;-72
2023/07/06 14:55:23;;;;;;;12.37;6.27;;;;;;;;;;6246929;28;20201;-72
2023/07/06 14:58:24;;;;;;;9.93;6.17;;;;;;;;;;6248799;28;20209;-71
2023/07/06 15:01:25;;;;;;;8.00;6.37;;;;;;;;;;6246261;28;20185;-71
2023/07/06 15:04:26;;;;;;;8.07;5.80;;;;;;;;;;6253994;28;20192;-72
2023/07/06 15:07:27;;;;;;;8.60;6.30;;;;;;;;;;6247750;28;20277;-72
2023/07/06 15:10:30;;;;;;;7.70;5.93;;;;;;;;;;6247518;28;20194;-71
2023/07/06 15:13:31;;;;;;;6.70;5.30;;;;;;;;;;6258182;28;20667;-71
2023/07/06 15:16:32;;;;;;;5.97;5.13;;;;;;;;;;6254637;28;20189;-72
2023/07/06 15:19:33;;;;;;;7.57;5.30;;;;;;;;;;6242497;28;20240;-71
2023/07/06 15:22:34;;;;;;;8.60;5.73;;;;;;;;;;6252512;28;20198;-73
2023/07/06 15:25:35;;;;;;;7.93;4.93;;;;;;;;;;6245195;28;20193;-73
2023/07/06 15:28:36;;;;;;;6.03;5.10;;;;;;;;;;6248119;28;20321;-73
2023/07/06 15:31:37;;;;;;;10.47;5.70;;;;;;;;;;6275344;28;20197;-71
2023/07/06 15:34:38;;;;;;;11.43;5.90;;;;;;;;;;6246173;28;20200;-73
2023/07/06 15:37:39;;;;;;;9.20;5.90;;;;;;;;;;6267912;28;20296;-73
2023/07/06 15:40:45;;;;;;;7.17;5.23;;;;;;;;;;6256181;28;20188;-74
2023/07/06 15:43:46;;;;;;;9.07;6.00;;;;;;;;;;6255592;28;20191;-74
2023/07/06 15:46:47;;;;;;;6.87;5.10;;;;;;;;;;6235244;28;20197;-74
2023/07/06 15:49:48;;;;;;;5.97;5.23;;;;;;;;;;6268924;28;20190;-74
2023/07/06 15:52:50;;;;;;;9.23;6.07;;;;;;;;;;6248606;28;20182;-74
2023/07/06 15:56:01;;;;;;;6.70;5.87;;;;;;;;;;6247309;28;20194;-74
2023/07/06 15:59:06;;;;;;;8.37;5.53;;;;;;;;;;6253882;28;20219;-74
2023/07/06 16:02:11;;;;;;;9.70;6.60;;;;;;;;;;6254877;28;20285;-73
2023/07/06 16:05:12;;;;;;;13.33;6.40;;;;;;;;;;6264646;28;20188;-73
2023/07/06 16:08:13;;;;;;;8.33;5.87;;;;;;;;;;6250041;28;20200;-74
2023/07/06 16:11:25;;;;;;;10.50;6.30;;;;;;;;;;6257177;28;20193;-74
2023/07/06 16:14:26;;;;;;;8.93;6.70;;;;;;;;;;6264600;28;20194;-73
2023/07/06 16:17:27;;;;;;;11.80;6.70;;;;;;;;;;6251488;28;20227;-73
2023/07/06 16:20:30;;;;;;;6.70;6.10;;;;;;;;;;6261026;28;20181;-73
2023/07/06 16:23:32;;;;;;;6.43;5.83;;;;;;;;;;6275055;28;20235;-74
2023/07/06 16:26:33;;;;;;;7.00;6.30;;;;;;;;;;6250265;28;20190;-73
2023/07/06 16:29:35;;;;;;;9.13;6.13;;;;;;;;;;6244930;28;20289;-73
2023/07/06 16:32:37;;;;;;;7.50;6.67;;;;;;;;;;6255606;28;20205;-74
2023/07/06 16:35:39;;;;;;;6.73;6.03;;;;;;;;;;6252419;28;20252;-72
2023/07/06 16:38:40;;;;;;;8.30;5.83;;;;;;;;;;6264399;28;20214;-73
2023/07/06 16:41:42;;;;;;;7.20;6.43;;;;;;;;;;6251770;28;20823;-74
2023/07/06 16:44:43;;;;;;;8.40;6.23;;;;;;;;;;6259059;28;20185;-73
2023/07/06 16:47:44;;;;;;;7.37;6.63;;;;;;;;;;6263306;28;20193;-73
2023/07/06 16:50:45;;;;;;;7.23;6.43;;;;;;;;;;6256307;28;20186;-72
2023/07/06 16:53:46;;;;;;;9.87;6.47;;;;;;;;;;6241766;28;20210;-72
2023/07/06 16:56:47;;;;;;;7.07;6.37;;;;;;;;;;6257563;28;20182;-66
2023/07/06 16:59:48;;;;;;;12.67;7.07;;;;;;;;;;6254789;28;20209;-66
2023/07/06 17:02:49;;;;;;;8.77;5.93;;;;;;;;;;6253600;28;20194;-67
2023/07/06 17:05:50;;;;;;;6.70;6.00;;;;;;;;;;6256160;28;20210;-69
2023/07/06 17:08:52;;;;;;;7.57;6.40;;;;;;;;;;6248242;28;20209;-70
2023/07/06 17:11:53;;;;;;;8.57;6.57;;;;;;;;;;6258564;28;20200;-67
2023/07/06 17:14:54;;;;;;;7.47;5.83;;;;;;;;;;6262570;28;20197;-69
2023/07/06 17:17:56;;;;;;;9.83;6.10;;;;;;;;;;6241293;28;20722;-73
2023/07/06 17:20:58;;;;;;;8.33;6.90;;;;;;;;;;6252388;28;20194;-67
2023/07/06 17:23:59;;;;;;;9.03;6.50;;;;;;;;;;6255711;28;20201;-66
2023/07/06 17:27:00;;;;;;;9.10;6.40;;;;;;;;;;6278241;28;20239;-69
2023/07/06 17:30:01;;;;;;;10.13;6.90;;;;;;;;;;6255675;28;20200;-71
2023/07/06 17:33:02;;;;;;;7.57;6.20;;;;;;;;;;6276021;28;20194;-70
2023/07/06 17:36:04;;;;;;;7.20;5.47;;;;;;;;;;6264542;28;20191;-71
2023/07/06 17:39:05;;;;;;;10.53;6.37;;;;;;;;;;6252485;28;20213;-71
2023/07/06 17:42:06;;;;;;;8.07;6.40;;;;;;;;;;6250147;28;20241;-69
2023/07/06 17:45:08;;;;;;;6.47;5.67;;;;;;;;;;6236277;28;20280;-69
2023/07/06 17:48:09;;;;;;;6.90;5.40;;;;;;;;;;6245406;28;20198;-68
2023/07/06 17:51:10;;;;;;;6.73;5.47;;;;;;;;;;6256343;28;20204;-69
2023/07/06 17:54:12;;;;;;;5.47;4.87;;;;;;;;;;6248014;28;20195;-68
2023/07/06 17:57:13;;;;;;;5.03;4.43;;;;;;;;;;6250580;28;20244;-68
2023/07/06 18:00:14;;;;;;;6.13;4.20;;;;;;;;;;6269135;28;20221;-68
2023/07/06 18:03:15;;;;;;;5.60;4.60;;;;;;;;;;6267138;28;20202;-68
2023/07/06 18:06:17;;;;;;;5.27;4.77;;;;;;;;;;6234610;28;20197;-70
2023/07/06 18:09:18;;;;;;;5.53;5.00;;;;;;;;;;6282551;28;20204;-71
2023/07/06 18:12:19;;;;;;;6.10;4.67;;;;;;;;;;6255233;28;20250;-71
2023/07/06 18:15:20;;;;;;;5.27;4.77;;;;;;;;;;6251293;28;20281;-71
2023/07/06 18:18:21;;;;;;;6.17;4.87;;;;;;;;;;6256517;28;20237;-69
2023/07/06 18:21:25;;;;;;;5.97;4.57;;;;;;;;;;6272309;28;20209;-68